SKW4086 KSLC-KBZN
Flight info
| Callsign | SKW4086 |
|---|---|
| Flight time | 0h 53m |
| Altitude | 34000 |
| Route | RUGGD3 HOLTR SABAT/N0418F350 |
| Aircraft | E75L/M-SDE3GILORVW/S |
Departure
| Time | 2026-04-24 22:57 |
|---|---|
| Airport | Salt Lake City International Airport (KSLC) |
Arrival
| Time | 2026-04-24 23:51 |
|---|---|
| Airport | Bozeman Yellowstone International Airport (KBZN) |
| Time | Latitude | Longitude | Altitude | Speed | Heading |
|---|---|---|---|---|---|
| 2026-04-24 22:40 | 40.78857 | -111.98309 | 4229 ft | 0 kts | 355° |
| 2026-04-24 22:47 | 40.78852 | -111.98308 | 4229 ft | 3 kts | 356° |
| 2026-04-24 22:47 | 40.78826 | -111.98311 | 4229 ft | 4 kts | 15° |
| 2026-04-24 22:48 | 40.78802 | -111.98326 | 4229 ft | 4 kts | 39° |
| 2026-04-24 22:48 | 40.78787 | -111.98354 | 4229 ft | 4 kts | 79° |
| 2026-04-24 22:48 | 40.78786 | -111.98360 | 4229 ft | 0 kts | 85° |
| 2026-04-24 22:51 | 40.78787 | -111.98348 | 4229 ft | 3 kts | 85° |
| 2026-04-24 22:51 | 40.78790 | -111.98297 | 4229 ft | 8 kts | 85° |
| 2026-04-24 22:51 | 40.78797 | -111.98206 | 4229 ft | 12 kts | 84° |
| 2026-04-24 22:51 | 40.78806 | -111.98080 | 4229 ft | 16 kts | 84° |
| 2026-04-24 22:52 | 40.78817 | -111.97929 | 4229 ft | 17 kts | 84° |
| 2026-04-24 22:52 | 40.78830 | -111.97810 | 4229 ft | 0 kts | 82° |
| 2026-04-24 22:52 | 40.78829 | -111.97806 | 4229 ft | 2 kts | 108° |
| 2026-04-24 22:52 | 40.78792 | -111.97784 | 4229 ft | 10 kts | 173° |
| 2026-04-24 22:53 | 40.78702 | -111.97773 | 4229 ft | 15 kts | 175° |
| 2026-04-24 22:53 | 40.78582 | -111.97759 | 4229 ft | 19 kts | 175° |
| 2026-04-24 22:53 | 40.78437 | -111.97742 | 4228 ft | 22 kts | 175° |
| 2026-04-24 22:53 | 40.78300 | -111.97727 | 4228 ft | 19 kts | 174° |
| 2026-04-24 22:54 | 40.78169 | -111.97702 | 4229 ft | 20 kts | 175° |
| 2026-04-24 22:54 | 40.78029 | -111.97685 | 4248 ft | 21 kts | 175° |
| 2026-04-24 22:54 | 40.77887 | -111.97692 | 4248 ft | 21 kts | 191° |
| 2026-04-24 22:54 | 40.77740 | -111.97687 | 4248 ft | 22 kts | 175° |
| 2026-04-24 22:55 | 40.77596 | -111.97674 | 4248 ft | 20 kts | 181° |
| 2026-04-24 22:55 | 40.77475 | -111.97686 | 4248 ft | 17 kts | 179° |
| 2026-04-24 22:55 | 40.77416 | -111.97640 | 4248 ft | 10 kts | 107° |
| 2026-04-24 22:55 | 40.77420 | -111.97546 | 4248 ft | 11 kts | 83° |
| 2026-04-24 22:56 | 40.77441 | -111.97445 | 4248 ft | 12 kts | 72° |
| 2026-04-24 22:56 | 40.77477 | -111.97348 | 4248 ft | 8 kts | 73° |
| 2026-04-24 22:56 | 40.77519 | -111.97319 | 4248 ft | 8 kts | 352° |
| 2026-04-24 22:56 | 40.77622 | -111.97332 | 4248 ft | 30 kts | 355° |
| 2026-04-24 22:57 | 40.78076 | -111.97387 | 4248 ft | 101 kts | 355° |
| 2026-04-24 22:57 | 40.79005 | -111.97487 | 4250 ft | 163 kts | 355° |
| 2026-04-24 22:57 | 40.80214 | -111.97630 | 4899 ft | 184 kts | 353° |
| 2026-04-24 22:57 | 40.81536 | -111.97863 | 5702 ft | 197 kts | 343° |
| 2026-04-24 22:58 | 40.82789 | -111.98706 | 6409 ft | 209 kts | 318° |
| 2026-04-24 22:58 | 40.83707 | -112.00277 | 7111 ft | 225 kts | 302° |
| 2026-04-24 22:58 | 40.84597 | -112.02039 | 7848 ft | 239 kts | 303° |
| 2026-04-24 22:58 | 40.85636 | -112.03862 | 8544 ft | 252 kts | 304° |
| 2026-04-24 22:59 | 40.86807 | -112.05679 | 9189 ft | 271 kts | 313° |
| 2026-04-24 22:59 | 40.88434 | -112.06999 | 9928 ft | 289 kts | 335° |
| 2026-04-24 22:59 | 40.92514 | -112.06500 | 11653 ft | 313 kts | 20° |
| 2026-04-24 23:00 | 40.94471 | -112.05169 | 12515 ft | 319 kts | 25° |
| 2026-04-24 23:00 | 40.96429 | -112.03754 | 13408 ft | 324 kts | 24° |
| 2026-04-24 23:00 | 40.98437 | -112.02348 | 14219 ft | 329 kts | 23° |
| 2026-04-24 23:00 | 41.00478 | -112.00933 | 15046 ft | 334 kts | 22° |
| 2026-04-24 23:01 | 41.02542 | -111.99481 | 15899 ft | 338 kts | 22° |
| 2026-04-24 23:01 | 41.04634 | -111.97999 | 16711 ft | 344 kts | 22° |
| 2026-04-24 23:01 | 41.06755 | -111.96481 | 17518 ft | 349 kts | 22° |
| 2026-04-24 23:01 | 41.08908 | -111.94932 | 18362 ft | 355 kts | 21° |
| 2026-04-24 23:02 | 41.11076 | -111.93334 | 19115 ft | 358 kts | 21° |
| 2026-04-24 23:02 | 41.12518 | -111.92252 | 19607 ft | 361 kts | 22° |
| 2026-04-24 23:02 | 41.14715 | -111.90588 | 20350 ft | 365 kts | 22° |
| 2026-04-24 23:02 | 41.17673 | -111.88331 | 21328 ft | 370 kts | 22° |
| 2026-04-24 23:03 | 41.19148 | -111.87184 | 21805 ft | 373 kts | 23° |
| 2026-04-24 23:03 | 41.21392 | -111.85420 | 22402 ft | 377 kts | 23° |
| 2026-04-24 23:03 | 41.23646 | -111.83609 | 23114 ft | 379 kts | 24° |
| 2026-04-24 23:03 | 41.26656 | -111.81161 | 23912 ft | 385 kts | 24° |
| 2026-04-24 23:04 | 41.28201 | -111.79886 | 24284 ft | 389 kts | 24° |
| 2026-04-24 23:04 | 41.30508 | -111.77964 | 24785 ft | 395 kts | 24° |
| 2026-04-24 23:04 | 41.32842 | -111.75991 | 25382 ft | 399 kts | 24° |
| 2026-04-24 23:04 | 41.35187 | -111.73986 | 25926 ft | 404 kts | 25° |
| 2026-04-24 23:05 | 41.37540 | -111.71957 | 25871 ft | 409 kts | 25° |
| 2026-04-24 23:05 | 41.39969 | -111.69945 | 25817 ft | 401 kts | 19° |
| 2026-04-24 23:05 | 41.42496 | -111.68540 | 25841 ft | 389 kts | 7° |
| 2026-04-24 23:05 | 41.45054 | -111.67680 | 25951 ft | 379 kts | 3° |
| 2026-04-24 23:06 | 41.47645 | -111.66866 | 26290 ft | 387 kts | 4° |
| 2026-04-24 23:06 | 41.50276 | -111.65954 | 26776 ft | 394 kts | 5° |
| 2026-04-24 23:06 | 41.52944 | -111.64976 | 27190 ft | 401 kts | 6° |
| 2026-04-24 23:06 | 41.55656 | -111.63959 | 27543 ft | 409 kts | 6° |
| 2026-04-24 23:07 | 41.58427 | -111.62910 | 27818 ft | 418 kts | 6° |
| 2026-04-24 23:07 | 41.61262 | -111.61825 | 28067 ft | 428 kts | 6° |
| 2026-04-24 23:07 | 41.64167 | -111.60715 | 28255 ft | 439 kts | 6° |
| 2026-04-24 23:07 | 41.67137 | -111.59578 | 28368 ft | 450 kts | 7° |
| 2026-04-24 23:08 | 41.70178 | -111.58409 | 28624 ft | 458 kts | 7° |
| 2026-04-24 23:08 | 41.73263 | -111.57220 | 28921 ft | 463 kts | 7° |
| 2026-04-24 23:08 | 41.76363 | -111.56024 | 29464 ft | 463 kts | 7° |
| 2026-04-24 23:08 | 41.79453 | -111.54828 | 29972 ft | 462 kts | 7° |
| 2026-04-24 23:09 | 41.82549 | -111.53848 | 30431 ft | 452 kts | 359° |
| 2026-04-24 23:09 | 41.85608 | -111.53239 | 30931 ft | 449 kts | 358° |
| 2026-04-24 23:09 | 41.88696 | -111.52624 | 31404 ft | 448 kts | 358° |
| 2026-04-24 23:09 | 41.91779 | -111.51971 | 31861 ft | 448 kts | 359° |
| 2026-04-24 23:10 | 41.94856 | -111.51299 | 32260 ft | 447 kts | 359° |
| 2026-04-24 23:10 | 41.97929 | -111.50616 | 32675 ft | 447 kts | 359° |
| 2026-04-24 23:10 | 42.00985 | -111.49928 | 33125 ft | 444 kts | 359° |
| 2026-04-24 23:10 | 42.04035 | -111.49242 | 33460 ft | 444 kts | 359° |
| 2026-04-24 23:11 | 42.07081 | -111.48555 | 33786 ft | 443 kts | 359° |
| 2026-04-24 23:11 | 42.13064 | -111.47188 | 33908 ft | 435 kts | 358° |
| 2026-04-24 23:12 | 42.19104 | -111.45826 | 33917 ft | 441 kts | 359° |
| 2026-04-24 23:12 | 42.25139 | -111.44445 | 33885 ft | 440 kts | 359° |
| 2026-04-24 23:13 | 42.31139 | -111.43481 | 33906 ft | 422 kts | 346° |
| 2026-04-24 23:13 | 42.37005 | -111.44227 | 33909 ft | 431 kts | 343° |
| 2026-04-24 23:14 | 42.43025 | -111.45063 | 33890 ft | 437 kts | 344° |
| 2026-04-24 23:14 | 42.49061 | -111.45875 | 33907 ft | 439 kts | 344° |
| 2026-04-24 23:15 | 42.55149 | -111.46690 | 33902 ft | 439 kts | 344° |
| 2026-04-24 23:15 | 42.61259 | -111.47511 | 33939 ft | 441 kts | 345° |
| 2026-04-24 23:16 | 42.67368 | -111.48333 | 33954 ft | 442 kts | 345° |
| 2026-04-24 23:16 | 42.73474 | -111.49155 | 33963 ft | 441 kts | 345° |
| 2026-04-24 23:17 | 42.79542 | -111.49976 | 33985 ft | 441 kts | 345° |
| 2026-04-24 23:17 | 42.85647 | -111.50803 | 33989 ft | 441 kts | 345° |
| 2026-04-24 23:18 | 42.91770 | -111.51634 | 33991 ft | 441 kts | 345° |
| 2026-04-24 23:18 | 42.97894 | -111.52468 | 34005 ft | 443 kts | 346° |
| 2026-04-24 23:19 | 43.04038 | -111.53305 | 34012 ft | 443 kts | 346° |
| 2026-04-24 23:19 | 43.10170 | -111.54141 | 34024 ft | 443 kts | 346° |
| 2026-04-24 23:20 | 43.15764 | -111.54907 | 34026 ft | 444 kts | 347° |
| 2026-04-24 23:20 | 43.21921 | -111.55750 | 34026 ft | 444 kts | 347° |
| 2026-04-24 23:21 | 43.26305 | -111.56351 | 34030 ft | 445 kts | 347° |
| 2026-04-24 23:21 | 43.29432 | -111.56781 | 34021 ft | 444 kts | 347° |
| 2026-04-24 23:22 | 43.35595 | -111.57630 | 34028 ft | 446 kts | 348° |
| 2026-04-24 23:22 | 43.41768 | -111.58481 | 34024 ft | 446 kts | 348° |
| 2026-04-24 23:23 | 43.47937 | -111.59333 | 34021 ft | 446 kts | 348° |
| 2026-04-24 23:23 | 43.54099 | -111.60185 | 34011 ft | 444 kts | 348° |
| 2026-04-24 23:24 | 43.60259 | -111.61041 | 34001 ft | 445 kts | 348° |
| 2026-04-24 23:24 | 43.66438 | -111.61900 | 33988 ft | 447 kts | 348° |
| 2026-04-24 23:25 | 43.72629 | -111.62762 | 33980 ft | 446 kts | 349° |
| 2026-04-24 23:25 | 43.78814 | -111.63626 | 33974 ft | 446 kts | 349° |
| 2026-04-24 23:26 | 43.84993 | -111.64491 | 33970 ft | 446 kts | 349° |
| 2026-04-24 23:26 | 43.91128 | -111.65350 | 33972 ft | 444 kts | 349° |
| 2026-04-24 23:27 | 43.97285 | -111.66216 | 33976 ft | 444 kts | 349° |
| 2026-04-24 23:27 | 44.03404 | -111.66178 | 33961 ft | 439 kts | 12° |
| 2026-04-24 23:28 | 44.08883 | -111.62599 | 34023 ft | 439 kts | 22° |
| 2026-04-24 23:28 | 44.14477 | -111.58841 | 33962 ft | 451 kts | 20° |
| 2026-04-24 23:29 | 44.20182 | -111.55164 | 33961 ft | 445 kts | 20° |
| 2026-04-24 23:29 | 44.22954 | -111.53388 | 33923 ft | 432 kts | 20° |
| 2026-04-24 23:29 | 44.25663 | -111.51662 | 33905 ft | 425 kts | 20° |
| 2026-04-24 23:29 | 44.28348 | -111.49957 | 33781 ft | 422 kts | 19° |
| 2026-04-24 23:30 | 44.31002 | -111.48260 | 33490 ft | 415 kts | 20° |
| 2026-04-24 23:30 | 44.33574 | -111.46616 | 32998 ft | 411 kts | 20° |
| 2026-04-24 23:30 | 44.36172 | -111.44947 | 32449 ft | 408 kts | 20° |
| 2026-04-24 23:30 | 44.38736 | -111.43300 | 31897 ft | 404 kts | 21° |
| 2026-04-24 23:31 | 44.41279 | -111.41665 | 31336 ft | 401 kts | 21° |
| 2026-04-24 23:31 | 44.43799 | -111.40045 | 30830 ft | 395 kts | 21° |
| 2026-04-24 23:31 | 44.46290 | -111.38435 | 30290 ft | 391 kts | 22° |
| 2026-04-24 23:31 | 44.48722 | -111.36803 | 29737 ft | 385 kts | 23° |
| 2026-04-24 23:32 | 44.51114 | -111.35216 | 29281 ft | 376 kts | 22° |
| 2026-04-24 23:32 | 44.53469 | -111.33686 | 28764 ft | 371 kts | 22° |
| 2026-04-24 23:32 | 44.55789 | -111.32190 | 28295 ft | 365 kts | 22° |
| 2026-04-24 23:32 | 44.58086 | -111.30720 | 27796 ft | 361 kts | 22° |
| 2026-04-24 23:33 | 44.60366 | -111.29263 | 27318 ft | 359 kts | 22° |
| 2026-04-24 23:33 | 44.61868 | -111.28305 | 27006 ft | 357 kts | 22° |
| 2026-04-24 23:33 | 44.64865 | -111.26391 | 26387 ft | 356 kts | 22° |
| 2026-04-24 23:33 | 44.67113 | -111.24955 | 25929 ft | 354 kts | 22° |
| 2026-04-24 23:34 | 44.69351 | -111.23525 | 25429 ft | 353 kts | 23° |
| 2026-04-24 23:34 | 44.71574 | -111.22102 | 24999 ft | 349 kts | 23° |
| 2026-04-24 23:34 | 44.73781 | -111.20688 | 24524 ft | 348 kts | 23° |
| 2026-04-24 23:34 | 44.75972 | -111.19283 | 24079 ft | 345 kts | 23° |
| 2026-04-24 23:35 | 44.78146 | -111.17887 | 23637 ft | 342 kts | 23° |
| 2026-04-24 23:35 | 44.80300 | -111.16504 | 23165 ft | 338 kts | 22° |
| 2026-04-24 23:35 | 44.82422 | -111.15140 | 22782 ft | 334 kts | 22° |
| 2026-04-24 23:35 | 44.84538 | -111.13780 | 22342 ft | 334 kts | 22° |
| 2026-04-24 23:36 | 44.86650 | -111.12419 | 21916 ft | 334 kts | 22° |
| 2026-04-24 23:36 | 44.88768 | -111.11055 | 21488 ft | 334 kts | 22° |
| 2026-04-24 23:36 | 44.90884 | -111.09691 | 21050 ft | 334 kts | 22° |
| 2026-04-24 23:36 | 44.92998 | -111.08328 | 20634 ft | 333 kts | 22° |
| 2026-04-24 23:37 | 44.95106 | -111.06966 | 20215 ft | 334 kts | 22° |
| 2026-04-24 23:37 | 44.97240 | -111.05586 | 19762 ft | 344 kts | 22° |
| 2026-04-24 23:37 | 45.01766 | -111.02658 | 18847 ft | 358 kts | 22° |
| 2026-04-24 23:38 | 45.04014 | -111.01197 | 18412 ft | 354 kts | 22° |
| 2026-04-24 23:38 | 45.06218 | -110.99765 | 17924 ft | 351 kts | 22° |
| 2026-04-24 23:38 | 45.08413 | -110.98338 | 17501 ft | 343 kts | 22° |
| 2026-04-24 23:38 | 45.10561 | -110.96938 | 17096 ft | 335 kts | 22° |
| 2026-04-24 23:39 | 45.12719 | -110.96011 | 16816 ft | 318 kts | 1° |
| 2026-04-24 23:39 | 45.14833 | -110.96486 | 16448 ft | 304 kts | 333° |
| 2026-04-24 23:39 | 45.16630 | -110.97962 | 16202 ft | 297 kts | 324° |
| 2026-04-24 23:39 | 45.18351 | -110.99580 | 15880 ft | 297 kts | 323° |
| 2026-04-24 23:40 | 45.20079 | -111.01201 | 15620 ft | 298 kts | 324° |
| 2026-04-24 23:40 | 45.21819 | -111.02806 | 15321 ft | 298 kts | 324° |
| 2026-04-24 23:40 | 45.23557 | -111.04397 | 15032 ft | 296 kts | 325° |
| 2026-04-24 23:40 | 45.25295 | -111.05975 | 14771 ft | 297 kts | 325° |
| 2026-04-24 23:41 | 45.26738 | -111.07279 | 14524 ft | 296 kts | 326° |
| 2026-04-24 23:41 | 45.28480 | -111.08830 | 14232 ft | 295 kts | 326° |
| 2026-04-24 23:41 | 45.30216 | -111.10380 | 13959 ft | 294 kts | 325° |
| 2026-04-24 23:41 | 45.31941 | -111.11936 | 13649 ft | 292 kts | 325° |
| 2026-04-24 23:42 | 45.33648 | -111.13483 | 13342 ft | 292 kts | 325° |
| 2026-04-24 23:42 | 45.35333 | -111.15016 | 12990 ft | 289 kts | 325° |
| 2026-04-24 23:42 | 45.37011 | -111.16549 | 12630 ft | 285 kts | 326° |
| 2026-04-24 23:42 | 45.38661 | -111.18054 | 12300 ft | 279 kts | 325° |
| 2026-04-24 23:43 | 45.40296 | -111.19464 | 12024 ft | 272 kts | 333° |
| 2026-04-24 23:43 | 45.42138 | -111.19862 | 11732 ft | 272 kts | 5° |
| 2026-04-24 23:43 | 45.43956 | -111.19236 | 11556 ft | 266 kts | 14° |
| 2026-04-24 23:43 | 45.45707 | -111.18416 | 11289 ft | 264 kts | 15° |
| 2026-04-24 23:44 | 45.47451 | -111.17631 | 11091 ft | 261 kts | 14° |
| 2026-04-24 23:44 | 45.49190 | -111.16875 | 10950 ft | 262 kts | 13° |
| 2026-04-24 23:44 | 45.50951 | -111.16134 | 10609 ft | 266 kts | 13° |
| 2026-04-24 23:44 | 45.52699 | -111.15347 | 10227 ft | 260 kts | 17° |
| 2026-04-24 23:45 | 45.54346 | -111.14415 | 9884 ft | 250 kts | 19° |
| 2026-04-24 23:45 | 45.55937 | -111.13500 | 9437 ft | 243 kts | 18° |
| 2026-04-24 23:45 | 45.57493 | -111.12624 | 9012 ft | 237 kts | 18° |
| 2026-04-24 23:45 | 45.58988 | -111.11793 | 8631 ft | 230 kts | 18° |
| 2026-04-24 23:46 | 45.60440 | -111.10994 | 8323 ft | 218 kts | 17° |
| 2026-04-24 23:46 | 45.61831 | -111.10230 | 7978 ft | 209 kts | 17° |
| 2026-04-24 23:46 | 45.63143 | -111.09511 | 7681 ft | 198 kts | 16° |
| 2026-04-24 23:46 | 45.64406 | -111.08820 | 7447 ft | 189 kts | 15° |
| 2026-04-24 23:47 | 45.65589 | -111.08172 | 7207 ft | 177 kts | 17° |
| 2026-04-24 23:47 | 45.66716 | -111.07557 | 6892 ft | 169 kts | 17° |
| 2026-04-24 23:47 | 45.67806 | -111.06963 | 6708 ft | 167 kts | 16° |
| 2026-04-24 23:47 | 45.68911 | -111.06457 | 6518 ft | 166 kts | 8° |
| 2026-04-24 23:48 | 45.69844 | -111.06316 | 6320 ft | 166 kts | 355° |
| 2026-04-24 23:48 | 45.70966 | -111.06581 | 6053 ft | 162 kts | 338° |
| 2026-04-24 23:48 | 45.71970 | -111.07275 | 5814 ft | 158 kts | 322° |
| 2026-04-24 23:48 | 45.72792 | -111.08273 | 5649 ft | 155 kts | 313° |
| 2026-04-24 23:49 | 45.73564 | -111.09346 | 5483 ft | 152 kts | 313° |
| 2026-04-24 23:49 | 45.74061 | -111.10043 | 5389 ft | 152 kts | 313° |
| 2026-04-24 23:49 | 45.75068 | -111.11442 | 5145 ft | 149 kts | 314° |
| 2026-04-24 23:49 | 45.75799 | -111.12454 | 4937 ft | 147 kts | 313° |
| 2026-04-24 23:50 | 45.76528 | -111.13470 | 4659 ft | 145 kts | 313° |
| 2026-04-24 23:50 | 45.77016 | -111.14146 | 4527 ft | 143 kts | 312° |
| 2026-04-24 23:50 | 45.77682 | -111.15082 | 4478 ft | 120 kts | 315° |
| 2026-04-24 23:50 | 45.78279 | -111.15908 | 4480 ft | 55 kts | 314° |
| 2026-04-24 23:51 | 45.78542 | -111.16273 | 4481 ft | 51 kts | 316° |
| 2026-04-24 23:51 | 45.78746 | -111.16560 | 4481 ft | 25 kts | 315° |
| 2026-04-24 23:51 | 45.78779 | -111.16653 | 4481 ft | 13 kts | 258° |
| 2026-04-24 23:51 | 45.78718 | -111.16754 | 4479 ft | 13 kts | 235° |
| 2026-04-24 23:52 | 45.78648 | -111.16819 | 4479 ft | 12 kts | 167° |
| 2026-04-24 23:52 | 45.78574 | -111.16731 | 4479 ft | 15 kts | 135° |
| 2026-04-24 23:52 | 45.78498 | -111.16624 | 4479 ft | 16 kts | 136° |
| 2026-04-24 23:52 | 45.78417 | -111.16512 | 4479 ft | 16 kts | 136° |
| 2026-04-24 23:53 | 45.78332 | -111.16393 | 4479 ft | 17 kts | 136° |
| 2026-04-24 23:53 | 45.78244 | -111.16271 | 4479 ft | 18 kts | 135° |
| 2026-04-24 23:53 | 45.78158 | -111.16149 | 4479 ft | 15 kts | 135° |
| 2026-04-24 23:53 | 45.78086 | -111.16049 | 4479 ft | 11 kts | 136° |
| 2026-04-24 23:54 | 45.78026 | -111.16058 | 4482 ft | 10 kts | 217° |
| 2026-04-24 23:54 | 45.77974 | -111.16040 | 4479 ft | 10 kts | 139° |
| 2026-04-24 23:54 | 45.77918 | -111.15961 | 4479 ft | 8 kts | 135° |
| 2026-04-24 23:54 | 45.77886 | -111.15960 | 4479 ft | 5 kts | 221° |
| 2026-04-24 23:55 | 45.77863 | -111.15992 | 4479 ft | 4 kts | 226° |
| 2026-04-24 23:55 | 45.77853 | -111.16008 | 4482 ft | 1 kts | 226° |
| 2026-04-24 23:55 | 45.77852 | -111.16009 | 4481 ft | 0 kts | 226° |